Terminal Aerodrome Forecast
Issued by NWS

Home | Current Version | Previous Version | Text Only | Print | Product List | Glossary On
Versions: 1 2 3 4 5 6 7 8 9 10 11 12 13 14 15 16 17 18 19 20 21 22
000
FTUS44 KLUB 291700
TAFCDS
TAF
KCDS 291722Z 2918/3018 VRB06KT P6SM SCT018
     FM292200 VRB06KT P6SM FEW030 FEW350
     FM301200 29005KT P6SM SCT050 SCT150=

USA.gov is the U.S. government's official web portal to all federal, state and local government web resources and services.